Tar Heel, NC (28392)

6:15 AM EST on February 07, 2016 (GMT -0500)
Tobermory (N.W. Bladen County) | | Change Station
CLOSE
Current Station
Personal Weather Station
Location: Fayetteville, NC
Elevation: 140 ft
Nearby Weather Stations
Active Advisory: Flood Warning

Elev 140 ft 34.83 °N, 78.87 °W | Updated 14 minutes ago

Clear
Clear
35.6 °F
Feels Like 30 °F
N
6.8
Wind Variable Wind from NNE

Today
High -- | Low -- °F
--% Chance of Precip.
Yesterday
High -- | Low -- °F
Precip. -- in
Pressure 30.05 in
Visibility 10.0 miles
Clouds Overcast 5500 ft
Windchill 30 °F
Dew Point 34 °F
Humidity 92%
Rainfall 0.25 in
Snow Depth Not available.
7:09 AM 5:50 PM
Waning Crescent, 2% visible
METAR KLBT 071054Z AUTO 02015G23KT 10SM -RA OVC055 03/01 A3005 RMK AO2 SLP175 P0002 T00330006
Pressure 30.05 in
Visibility 10.0 miles
Clouds Overcast 5500 ft
Windchill 30 °F
Dew Point 34 °F
Humidity 92%
Rainfall 0.25 in
Snow Depth Not available.
7:09 AM 5:50 PM
Waning Crescent, 2% visible
METAR KLBT 071054Z AUTO 02015G23KT 10SM -RA OVC055 03/01 A3005 RMK AO2 SLP175 P0002 T00330006

10-Day Weather Forecast

Almanac

Astronomy

Feb. 07, 2016 Rise Set
Actual Time
Civil Twilight
Nautical Twilight
Astronomical Twilight
Moon
Length of Visible Light
Length of Day
Tomorrow will be .
, % of the Moon is Illuminated

Today's Extremes

State Highs State Lows

Community

WunderPhotos

Upload Photos

1,891,170 photos uploaded!

WunderBlog® & News

Nearby

Air Quality

  Air Quality AQ Index Pollutant
Not available.

Snow Depth

Station Depth Elevation

Earthquake Activity

City Distance Mag. Time & Date
Minimum magnitude displayed is 2.5.

Coastal Water Temperatures

Place Temperature

Stations

Nearby Weather Stations

Station Location Temp. Windchill Dew Point Humidity Wind Precip. Elev Updated Type
                   

Watches & Warnings

Flood Warning
Issued: 8:01 PM EST Feb. 6, 2016 – National Weather Service

... Flood Warning now in effect until Sunday morning...
the Flood Warning continues for
the Cape Fear at William o Huske lock and dam 3.
* Until Sunday morning.
* At 7:00 PM Saturday the stage was 42.24 feet.
* Flood stage is 42.0 feet.
* Minor flooding is occurring.
* Forecast... the river will continue to fall to below flood stage by this
evening.
* Impact... at 42.0 feet... water levels will top the navigational lock. Operations
stop and the equipment must be removed. Minor flooding will occur on land
adjacent to the left bank of the river.


Lat... Lon 3485 7886 3485 7875 3478 7874 3472 7865
          3465 7872 3472 7882